Key West, FL

14:15 EDT le 25 avril 2015 (GMT -0400)
Big Coppitt Key Gulfside | | Change Station
CLOSE
Current Station
Stations météorologiques personnelles
Location: Key West, FL
Altitude: 31 ft
Stations météo à proximité

Alt. 31 ft 24.60 °N, 81.67 °W | Updated 7 minutes ago

Ciel dégagé
Ciel dégagé
90.0 ° F
Paraît 98 ° F
N
4.7
Vent Variable Vent de SO

Aujourd'hui
Haut(e) -- | Bas -- ° F
--% Risque de précip.
Hier
Haut(e) -- | Bas -- ° F
Precip. -- pouce
6:56 AM 7:53 PM
Lune montante, 48% visible
Pression 29.93 pouce
Visibilité 10.0 Miles terrestres
Nuages Ciel dégagé
indice de chaleur 98 ° F
Point de rosée 73 ° F
Humidité 57%
Précipitations 0.00 pouce
Profondeur de la couche neigeuse Non disponible.
UV 16 sur 12
Pollen 6.20 sur 12
Qualité de l'air Non disponible.
Flu Activity Local Activity
METAR KNQX 251753Z 18007KT 10SM CLR 30/22 A2993 RMK AO2 SLP135 T03000222 10311 20267 58010 $

More Conditions Fewer Conditions

Pression 29.93 pouce
Visibilité 10.0 Miles terrestres
Nuages Ciel dégagé
indice de chaleur 98 ° F
Point de rosée 73 ° F
Humidité 57%
Précipitations 0.00 pouce
Profondeur de la couche neigeuse Non disponible.
UV 16 sur 12
Pollen 6.20 sur 12
Qualité de l'air Non disponible.
Flu Activity Local Activity
METAR KNQX 251753Z 18007KT 10SM CLR 30/22 A2993 RMK AO2 SLP135 T03000222 10311 20267 58010 $

More Conditions Fewer Conditions

10-Day Weather Forecast

Almanac

Astronomie

Apr. 25, 2015 Lever Coucher
Temps réel
Crépuscule civil
Crépuscule nautique
Crépuscule astronomique
Lune
Durée de lumière visible
Longueur du jour
Tomorrow will be .
, % of the Moon is Illuminated

Extrêmes aujourd'hui

State Highs State Lows

Community

WunderPhotos

Upload Photos

1,816,763 Photos téléchargées !

WunderBlogs® & News

Nearby

Qualité de l'air

  Qualité de l'air Indice de la qualité de l'air Polluant
Not available.

Épaisseur de neige

Station Depth Altitude

Activité sismique

Ville Distance Mag. Time & Date
Minimum magnitude displayed is 2.5.

Températures des eaux côtières

Lieu Température

Stations

Stations météo à proximité

Emplacement de la station Température Refroidissement éolien Point de rosée Humidité Vent Precip. Alt. Mise à jour Type